sensor_id;sensor_type;location;lat;lon;timestamp;temperature;humidity
11744;DHT22;5929;51.906;7.674;2023-02-28T00:01:06;-0.70;99.90
11744;DHT22;5929;51.906;7.674;2023-02-28T00:03:33;-0.70;99.90
11744;DHT22;5929;51.906;7.674;2023-02-28T00:06:01;-0.70;99.90
11744;DHT22;5929;51.906;7.674;2023-02-28T00:08:28;-0.70;99.90
11744;DHT22;5929;51.906;7.674;2023-02-28T00:10:59;-0.80;99.90
11744;DHT22;5929;51.906;7.674;2023-02-28T00:13:27;-0.70;99.90
11744;DHT22;5929;51.906;7.674;2023-02-28T00:16:04;-0.80;99.90
11744;DHT22;5929;51.906;7.674;2023-02-28T00:18:31;-0.80;99.90
11744;DHT22;5929;51.906;7.674;2023-02-28T00:20:58;-0.90;99.90
11744;DHT22;5929;51.906;7.674;2023-02-28T00:23:26;-0.80;99.90
11744;DHT22;5929;51.906;7.674;2023-02-28T00:25:53;-0.90;99.90
11744;DHT22;5929;51.906;7.674;2023-02-28T00:28:22;-1.00;99.90
11744;DHT22;5929;51.906;7.674;2023-02-28T00:30:49;-1.00;99.90
11744;DHT22;5929;51.906;7.674;2023-02-28T00:33:16;-0.90;99.90
11744;DHT22;5929;51.906;7.674;2023-02-28T00:35:46;-0.90;99.90
11744;DHT22;5929;51.906;7.674;2023-02-28T00:38:14;-1.00;99.90
11744;DHT22;5929;51.906;7.674;2023-02-28T00:40:41;-1.00;99.90
11744;DHT22;5929;51.906;7.674;2023-02-28T00:43:08;-1.00;99.90
11744;DHT22;5929;51.906;7.674;2023-02-28T00:45:36;-1.00;99.90
11744;DHT22;5929;51.906;7.674;2023-02-28T00:48:03;-1.00;99.90
11744;DHT22;5929;51.906;7.674;2023-02-28T00:50:30;-1.00;99.90
11744;DHT22;5929;51.906;7.674;2023-02-28T00:52:57;-1.00;99.90
11744;DHT22;5929;51.906;7.674;2023-02-28T00:55:24;-1.10;99.90
11744;DHT22;5929;51.906;7.674;2023-02-28T00:57:51;-1.10;99.90
11744;DHT22;5929;51.906;7.674;2023-02-28T01:00:18;-1.20;99.90
11744;DHT22;5929;51.906;7.674;2023-02-28T01:02:46;-1.20;99.90
11744;DHT22;5929;51.906;7.674;2023-02-28T01:05:41;-1.20;99.90
11744;DHT22;5929;51.906;7.674;2023-02-28T01:08:08;-1.20;99.90
11744;DHT22;5929;51.906;7.674;2023-02-28T01:10:34;-1.20;99.90
11744;DHT22;5929;51.906;7.674;2023-02-28T01:13:02;-1.30;99.90
11744;DHT22;5929;51.906;7.674;2023-02-28T01:15:29;-1.30;99.90
11744;DHT22;5929;51.906;7.674;2023-02-28T01:17:58;-1.30;99.90
11744;DHT22;5929;51.906;7.674;2023-02-28T01:20:25;-1.30;99.90
11744;DHT22;5929;51.906;7.674;2023-02-28T01:22:52;-1.40;99.90
11744;DHT22;5929;51.906;7.674;2023-02-28T01:25:19;-1.40;99.90
11744;DHT22;5929;51.906;7.674;2023-02-28T01:27:46;-1.40;99.90
11744;DHT22;5929;51.906;7.674;2023-02-28T01:30:13;-1.40;99.90
11744;DHT22;5929;51.906;7.674;2023-02-28T01:32:40;-1.40;99.90
11744;DHT22;5929;51.906;7.674;2023-02-28T01:35:08;-1.40;99.90
11744;DHT22;5929;51.906;7.674;2023-02-28T01:37:35;-1.50;99.90
11744;DHT22;5929;51.906;7.674;2023-02-28T01:40:02;-1.50;99.90
11744;DHT22;5929;51.906;7.674;2023-02-28T01:42:29;-1.50;99.90
11744;DHT22;5929;51.906;7.674;2023-02-28T01:45:18;-1.50;99.90
11744;DHT22;5929;51.906;7.674;2023-02-28T01:47:48;-1.50;99.90
11744;DHT22;5929;51.906;7.674;2023-02-28T01:50:19;-1.50;99.90
11744;DHT22;5929;51.906;7.674;2023-02-28T01:52:48;-1.60;99.90
11744;DHT22;5929;51.906;7.674;2023-02-28T01:55:17;-1.60;99.90
11744;DHT22;5929;51.906;7.674;2023-02-28T01:57:48;-1.60;99.90
11744;DHT22;5929;51.906;7.674;2023-02-28T02:00:17;-1.60;99.90
11744;DHT22;5929;51.906;7.674;2023-02-28T02:02:47;-1.60;99.90
11744;DHT22;5929;51.906;7.674;2023-02-28T02:05:18;-1.60;99.90
11744;DHT22;5929;51.906;7.674;2023-02-28T02:07:49;-1.60;99.90
11744;DHT22;5929;51.906;7.674;2023-02-28T02:10:19;-1.70;99.90
11744;DHT22;5929;51.906;7.674;2023-02-28T02:13:03;-1.80;99.90
11744;DHT22;5929;51.906;7.674;2023-02-28T02:15:38;-1.70;99.90
11744;DHT22;5929;51.906;7.674;2023-02-28T02:18:12;-1.70;99.90
11744;DHT22;5929;51.906;7.674;2023-02-28T02:21:12;-1.80;99.90
11744;DHT22;5929;51.906;7.674;2023-02-28T02:27:03;-1.70;99.90
11744;DHT22;5929;51.906;7.674;2023-02-28T02:33:02;-1.80;99.90
11744;DHT22;5929;51.906;7.674;2023-02-28T02:35:35;-1.70;99.90
11744;DHT22;5929;51.906;7.674;2023-02-28T02:38:09;-1.70;99.90
11744;DHT22;5929;51.906;7.674;2023-02-28T02:40:41;-1.80;99.90
11744;DHT22;5929;51.906;7.674;2023-02-28T02:43:15;-1.90;99.90
11744;DHT22;5929;51.906;7.674;2023-02-28T02:45:47;-1.90;99.90
11744;DHT22;5929;51.906;7.674;2023-02-28T02:48:18;-1.90;99.90
11744;DHT22;5929;51.906;7.674;2023-02-28T02:50:52;-2.00;99.90
11744;DHT22;5929;51.906;7.674;2023-02-28T02:53:22;-2.10;99.90
11744;DHT22;5929;51.906;7.674;2023-02-28T02:55:52;-2.10;99.90
11744;DHT22;5929;51.906;7.674;2023-02-28T02:58:24;-2.10;99.90
11744;DHT22;5929;51.906;7.674;2023-02-28T03:00:54;-2.10;99.90
11744;DHT22;5929;51.906;7.674;2023-02-28T03:03:22;-2.10;99.90
11744;DHT22;5929;51.906;7.674;2023-02-28T03:05:56;-2.10;99.90
11744;DHT22;5929;51.906;7.674;2023-02-28T03:08:23;-2.20;99.90
11744;DHT22;5929;51.906;7.674;2023-02-28T03:10:51;-2.20;99.90
11744;DHT22;5929;51.906;7.674;2023-02-28T03:13:34;-2.10;99.90
11744;DHT22;5929;51.906;7.674;2023-02-28T03:16:17;-2.20;99.90
11744;DHT22;5929;51.906;7.674;2023-02-28T03:18:53;-2.20;99.90
11744;DHT22;5929;51.906;7.674;2023-02-28T03:21:27;-2.20;99.90
11744;DHT22;5929;51.906;7.674;2023-02-28T03:24:01;-2.20;99.90
11744;DHT22;5929;51.906;7.674;2023-02-28T03:26:31;-2.20;99.90
11744;DHT22;5929;51.906;7.674;2023-02-28T03:29:03;-2.20;99.90
11744;DHT22;5929;51.906;7.674;2023-02-28T03:31:36;-2.20;99.90
11744;DHT22;5929;51.906;7.674;2023-02-28T03:34:08;-2.30;99.90
11744;DHT22;5929;51.906;7.674;2023-02-28T03:36:41;-2.30;99.90
11744;DHT22;5929;51.906;7.674;2023-02-28T03:39:13;-2.30;99.90
11744;DHT22;5929;51.906;7.674;2023-02-28T03:41:43;-2.30;99.90
11744;DHT22;5929;51.906;7.674;2023-02-28T03:44:18;-2.30;99.90
11744;DHT22;5929;51.906;7.674;2023-02-28T03:46:50;-2.30;99.90
11744;DHT22;5929;51.906;7.674;2023-02-28T03:49:23;-2.30;99.90
11744;DHT22;5929;51.906;7.674;2023-02-28T03:51:54;-2.30;99.90
11744;DHT22;5929;51.906;7.674;2023-02-28T03:54:27;-2.30;99.90
11744;DHT22;5929;51.906;7.674;2023-02-28T03:57:00;-2.30;99.90
11744;DHT22;5929;51.906;7.674;2023-02-28T03:59:34;-2.30;99.90
11744;DHT22;5929;51.906;7.674;2023-02-28T04:02:02;-2.40;99.90
11744;DHT22;5929;51.906;7.674;2023-02-28T04:04:29;-2.50;99.90
11744;DHT22;5929;51.906;7.674;2023-02-28T04:07:04;-2.40;99.90
11744;DHT22;5929;51.906;7.674;2023-02-28T04:09:31;-2.40;99.90
11744;DHT22;5929;51.906;7.674;2023-02-28T04:11:58;-2.40;99.90
11744;DHT22;5929;51.906;7.674;2023-02-28T04:14:25;-2.40;99.90
11744;DHT22;5929;51.906;7.674;2023-02-28T04:16:52;-2.40;99.90
11744;DHT22;5929;51.906;7.674;2023-02-28T04:19:21;-2.30;99.90
11744;DHT22;5929;51.906;7.674;2023-02-28T04:21:50;-2.30;99.90
11744;DHT22;5929;51.906;7.674;2023-02-28T04:24:20;-2.40;99.90
11744;DHT22;5929;51.906;7.674;2023-02-28T04:26:49;-2.40;99.90
11744;DHT22;5929;51.906;7.674;2023-02-28T04:29:19;-2.40;99.90
11744;DHT22;5929;51.906;7.674;2023-02-28T04:31:46;-2.40;99.90
11744;DHT22;5929;51.906;7.674;2023-02-28T04:34:13;-2.40;99.90
11744;DHT22;5929;51.906;7.674;2023-02-28T04:36:40;-2.40;99.90
11744;DHT22;5929;51.906;7.674;2023-02-28T04:39:08;-2.40;99.90
11744;DHT22;5929;51.906;7.674;2023-02-28T04:41:37;-2.40;99.90
11744;DHT22;5929;51.906;7.674;2023-02-28T04:44:04;-2.50;99.90
11744;DHT22;5929;51.906;7.674;2023-02-28T04:46:31;-2.50;99.90
11744;DHT22;5929;51.906;7.674;2023-02-28T04:48:58;-2.50;99.90
11744;DHT22;5929;51.906;7.674;2023-02-28T04:51:25;-2.50;99.90
11744;DHT22;5929;51.906;7.674;2023-02-28T04:53:52;-2.50;99.90
11744;DHT22;5929;51.906;7.674;2023-02-28T04:56:18;-2.60;99.90
11744;DHT22;5929;51.906;7.674;2023-02-28T04:58:47;-2.50;99.90
11744;DHT22;5929;51.906;7.674;2023-02-28T05:01:26;-2.50;99.90
11744;DHT22;5929;51.906;7.674;2023-02-28T05:03:53;-2.50;99.90
11744;DHT22;5929;51.906;7.674;2023-02-28T05:06:22;-2.50;99.90
11744;DHT22;5929;51.906;7.674;2023-02-28T05:08:50;-2.50;99.90
11744;DHT22;5929;51.906;7.674;2023-02-28T05:11:19;-2.60;99.90
11744;DHT22;5929;51.906;7.674;2023-02-28T05:13:48;-2.60;99.90
11744;DHT22;5929;51.906;7.674;2023-02-28T05:16:16;-2.60;99.90
11744;DHT22;5929;51.906;7.674;2023-02-28T05:18:43;-2.60;99.90
11744;DHT22;5929;51.906;7.674;2023-02-28T05:21:28;-2.60;99.90
11744;DHT22;5929;51.906;7.674;2023-02-28T05:23:57;-2.70;99.90
11744;DHT22;5929;51.906;7.674;2023-02-28T05:26:25;-2.70;99.90
11744;DHT22;5929;51.906;7.674;2023-02-28T05:28:53;-2.70;99.90
11744;DHT22;5929;51.906;7.674;2023-02-28T05:31:20;-2.70;99.90
11744;DHT22;5929;51.906;7.674;2023-02-28T05:33:47;-2.70;99.90
11744;DHT22;5929;51.906;7.674;2023-02-28T05:36:14;-2.70;99.90
11744;DHT22;5929;51.906;7.674;2023-02-28T05:38:42;-2.70;99.90
11744;DHT22;5929;51.906;7.674;2023-02-28T05:41:10;-2.80;99.90
11744;DHT22;5929;51.906;7.674;2023-02-28T05:43:37;-2.70;99.90
11744;DHT22;5929;51.906;7.674;2023-02-28T05:46:07;-2.80;99.90
11744;DHT22;5929;51.906;7.674;2023-02-28T05:48:35;-2.80;99.90
11744;DHT22;5929;51.906;7.674;2023-02-28T05:51:03;-2.80;99.90
11744;DHT22;5929;51.906;7.674;2023-02-28T05:53:30;-2.80;99.90
11744;DHT22;5929;51.906;7.674;2023-02-28T05:55:57;-2.80;99.90
11744;DHT22;5929;51.906;7.674;2023-02-28T05:58:25;-2.90;99.90
11744;DHT22;5929;51.906;7.674;2023-02-28T06:00:56;-2.80;99.90
11744;DHT22;5929;51.906;7.674;2023-02-28T06:03:24;-2.80;99.90
11744;DHT22;5929;51.906;7.674;2023-02-28T06:05:53;-2.80;99.90
11744;DHT22;5929;51.906;7.674;2023-02-28T06:08:20;-2.90;99.90
11744;DHT22;5929;51.906;7.674;2023-02-28T06:10:47;-2.90;99.90
11744;DHT22;5929;51.906;7.674;2023-02-28T06:13:14;-2.90;99.90
11744;DHT22;5929;51.906;7.674;2023-02-28T06:15:41;-2.90;99.90
11744;DHT22;5929;51.906;7.674;2023-02-28T06:18:08;-2.80;99.90
11744;DHT22;5929;51.906;7.674;2023-02-28T06:20:36;-2.80;99.90
11744;DHT22;5929;51.906;7.674;2023-02-28T06:23:03;-2.80;99.90
11744;DHT22;5929;51.906;7.674;2023-02-28T06:25:30;-2.80;99.90
11744;DHT22;5929;51.906;7.674;2023-02-28T06:27:57;-2.70;99.90
11744;DHT22;5929;51.906;7.674;2023-02-28T06:30:23;-2.80;99.90
11744;DHT22;5929;51.906;7.674;2023-02-28T06:32:52;-2.80;99.90
11744;DHT22;5929;51.906;7.674;2023-02-28T06:35:19;-2.80;99.90
11744;DHT22;5929;51.906;7.674;2023-02-28T06:37:48;-2.80;99.90
11744;DHT22;5929;51.906;7.674;2023-02-28T06:40:15;-2.80;99.90
11744;DHT22;5929;51.906;7.674;2023-02-28T06:42:42;-2.80;99.90
11744;DHT22;5929;51.906;7.674;2023-02-28T06:45:10;-2.80;99.90
11744;DHT22;5929;51.906;7.674;2023-02-28T06:47:37;-2.70;99.90
11744;DHT22;5929;51.906;7.674;2023-02-28T06:50:06;-2.70;99.90
11744;DHT22;5929;51.906;7.674;2023-02-28T06:52:35;-2.70;99.90
11744;DHT22;5929;51.906;7.674;2023-02-28T06:55:06;-2.70;99.90
11744;DHT22;5929;51.906;7.674;2023-02-28T06:57:35;-2.60;99.90
11744;DHT22;5929;51.906;7.674;2023-02-28T07:00:05;-2.60;99.90
11744;DHT22;5929;51.906;7.674;2023-02-28T07:02:33;-2.60;99.90
11744;DHT22;5929;51.906;7.674;2023-02-28T07:04:59;-2.60;99.90
11744;DHT22;5929;51.906;7.674;2023-02-28T07:07:26;-2.50;99.90
11744;DHT22;5929;51.906;7.674;2023-02-28T07:09:53;-2.50;99.90
11744;DHT22;5929;51.906;7.674;2023-02-28T07:12:21;-2.40;99.90
11744;DHT22;5929;51.906;7.674;2023-02-28T07:14:48;-2.40;99.90
11744;DHT22;5929;51.906;7.674;2023-02-28T07:17:20;-2.40;99.90
11744;DHT22;5929;51.906;7.674;2023-02-28T07:19:47;-2.40;99.90
11744;DHT22;5929;51.906;7.674;2023-02-28T07:22:13;-2.40;99.90
11744;DHT22;5929;51.906;7.674;2023-02-28T07:24:40;-2.30;99.90
11744;DHT22;5929;51.906;7.674;2023-02-28T07:27:07;-2.30;99.90
11744;DHT22;5929;51.906;7.674;2023-02-28T07:29:35;-2.20;99.90
11744;DHT22;5929;51.906;7.674;2023-02-28T07:32:02;-2.20;99.90
11744;DHT22;5929;51.906;7.674;2023-02-28T07:34:29;-2.10;99.90
11744;DHT22;5929;51.906;7.674;2023-02-28T07:36:56;-2.10;99.90
11744;DHT22;5929;51.906;7.674;2023-02-28T07:39:23;-2.00;99.90
11744;DHT22;5929;51.906;7.674;2023-02-28T07:41:50;-2.00;99.90
11744;DHT22;5929;51.906;7.674;2023-02-28T07:44:17;-1.90;99.90
11744;DHT22;5929;51.906;7.674;2023-02-28T07:46:45;-1.90;99.90
11744;DHT22;5929;51.906;7.674;2023-02-28T07:49:11;-1.70;99.90
11744;DHT22;5929;51.906;7.674;2023-02-28T07:51:40;-1.70;99.90
11744;DHT22;5929;51.906;7.674;2023-02-28T07:54:07;-1.60;99.90
11744;DHT22;5929;51.906;7.674;2023-02-28T07:56:34;-1.50;99.90
11744;DHT22;5929;51.906;7.674;2023-02-28T07:59:01;-1.50;99.90
11744;DHT22;5929;51.906;7.674;2023-02-28T08:01:28;-1.40;99.90
11744;DHT22;5929;51.906;7.674;2023-02-28T08:03:56;-1.30;99.90
11744;DHT22;5929;51.906;7.674;2023-02-28T08:06:25;-1.10;99.90
11744;DHT22;5929;51.906;7.674;2023-02-28T08:08:53;-1.10;99.90
11744;DHT22;5929;51.906;7.674;2023-02-28T08:11:21;-0.90;99.90
11744;DHT22;5929;51.906;7.674;2023-02-28T08:13:48;-0.80;99.90
11744;DHT22;5929;51.906;7.674;2023-02-28T08:16:15;-0.60;99.90
11744;DHT22;5929;51.906;7.674;2023-02-28T08:18:47;-0.60;99.90
11744;DHT22;5929;51.906;7.674;2023-02-28T08:21:15;-0.50;99.90
11744;DHT22;5929;51.906;7.674;2023-02-28T08:23:42;-0.50;99.90
11744;DHT22;5929;51.906;7.674;2023-02-28T08:26:09;-0.30;99.90
11744;DHT22;5929;51.906;7.674;2023-02-28T08:28:36;-0.40;99.90
11744;DHT22;5929;51.906;7.674;2023-02-28T08:31:09;-0.30;99.90
11744;DHT22;5929;51.906;7.674;2023-02-28T08:33:36;-0.10;99.90
11744;DHT22;5929;51.906;7.674;2023-02-28T08:36:05;0.00;99.90
11744;DHT22;5929;51.906;7.674;2023-02-28T08:38:33;0.10;99.90
11744;DHT22;5929;51.906;7.674;2023-02-28T08:41:02;0.10;99.90
11744;DHT22;5929;51.906;7.674;2023-02-28T08:43:33;0.10;99.90
11744;DHT22;5929;51.906;7.674;2023-02-28T08:46:00;0.10;99.90
11744;DHT22;5929;51.906;7.674;2023-02-28T08:48:29;0.20;99.90
11744;DHT22;5929;51.906;7.674;2023-02-28T08:50:56;0.30;99.90
11744;DHT22;5929;51.906;7.674;2023-02-28T08:53:23;0.50;99.90
11744;DHT22;5929;51.906;7.674;2023-02-28T08:56:03;0.50;99.90
11744;DHT22;5929;51.906;7.674;2023-02-28T08:58:29;0.50;99.90
11744;DHT22;5929;51.906;7.674;2023-02-28T09:00:57;0.50;99.90
11744;DHT22;5929;51.906;7.674;2023-02-28T09:03:24;0.60;99.70
11744;DHT22;5929;51.906;7.674;2023-02-28T09:05:54;0.60;99.90
11744;DHT22;5929;51.906;7.674;2023-02-28T09:08:21;0.70;99.90
11744;DHT22;5929;51.906;7.674;2023-02-28T09:10:48;0.80;99.70
11744;DHT22;5929;51.906;7.674;2023-02-28T09:13:16;0.90;98.60
11744;DHT22;5929;51.906;7.674;2023-02-28T09:15:43;1.00;98.20
11744;DHT22;5929;51.906;7.674;2023-02-28T09:18:10;1.10;98.00
11744;DHT22;5929;51.906;7.674;2023-02-28T09:20:38;1.20;97.10
11744;DHT22;5929;51.906;7.674;2023-02-28T09:23:08;1.30;96.60
11744;DHT22;5929;51.906;7.674;2023-02-28T09:25:36;1.40;96.20
11744;DHT22;5929;51.906;7.674;2023-02-28T09:28:05;1.50;95.60
11744;DHT22;5929;51.906;7.674;2023-02-28T09:30:34;1.70;94.20
11744;DHT22;5929;51.906;7.674;2023-02-28T09:33:00;1.80;94.80
11744;DHT22;5929;51.906;7.674;2023-02-28T09:35:27;1.80;94.00
11744;DHT22;5929;51.906;7.674;2023-02-28T09:37:56;2.00;93.80
11744;DHT22;5929;51.906;7.674;2023-02-28T09:40:24;2.10;92.10
11744;DHT22;5929;51.906;7.674;2023-02-28T09:42:53;2.20;91.90
11744;DHT22;5929;51.906;7.674;2023-02-28T09:45:24;2.30;91.70
11744;DHT22;5929;51.906;7.674;2023-02-28T09:47:58;2.40;90.80
11744;DHT22;5929;51.906;7.674;2023-02-28T09:50:31;2.40;90.70
11744;DHT22;5929;51.906;7.674;2023-02-28T09:53:03;2.40;90.80
11744;DHT22;5929;51.906;7.674;2023-02-28T09:55:35;2.50;90.80
11744;DHT22;5929;51.906;7.674;2023-02-28T09:58:04;2.70;90.00
11744;DHT22;5929;51.906;7.674;2023-02-28T10:00:34;2.70;88.80
11744;DHT22;5929;51.906;7.674;2023-02-28T10:03:26;2.70;89.60
11744;DHT22;5929;51.906;7.674;2023-02-28T10:05:59;2.80;88.30
11744;DHT22;5929;51.906;7.674;2023-02-28T10:08:33;3.00;86.10
11744;DHT22;5929;51.906;7.674;2023-02-28T10:11:09;3.20;87.60
11744;DHT22;5929;51.906;7.674;2023-02-28T10:13:45;3.20;85.80
11744;DHT22;5929;51.906;7.674;2023-02-28T10:16:20;3.30;85.90
11744;DHT22;5929;51.906;7.674;2023-02-28T10:18:54;3.40;86.70
11744;DHT22;5929;51.906;7.674;2023-02-28T10:21:27;3.40;85.60
11744;DHT22;5929;51.906;7.674;2023-02-28T10:24:02;3.60;86.10
11744;DHT22;5929;51.906;7.674;2023-02-28T10:26:31;3.50;86.10
11744;DHT22;5929;51.906;7.674;2023-02-28T10:28:58;3.80;82.50
11744;DHT22;5929;51.906;7.674;2023-02-28T10:31:25;4.00;82.70
11744;DHT22;5929;51.906;7.674;2023-02-28T10:33:57;4.10;82.30
11744;DHT22;5929;51.906;7.674;2023-02-28T10:36:24;4.20;82.30
11744;DHT22;5929;51.906;7.674;2023-02-28T10:38:50;4.20;82.70
11744;DHT22;5929;51.906;7.674;2023-02-28T10:41:28;4.40;82.60
11744;DHT22;5929;51.906;7.674;2023-02-28T10:44:14;4.40;82.00
11744;DHT22;5929;51.906;7.674;2023-02-28T10:46:42;4.50;81.50
11744;DHT22;5929;51.906;7.674;2023-02-28T10:49:15;4.40;81.30
11744;DHT22;5929;51.906;7.674;2023-02-28T10:51:43;4.30;80.20
11744;DHT22;5929;51.906;7.674;2023-02-28T10:54:16;4.20;81.30
11744;DHT22;5929;51.906;7.674;2023-02-28T10:56:43;4.50;82.00
11744;DHT22;5929;51.906;7.674;2023-02-28T10:59:26;4.80;81.10
11744;DHT22;5929;51.906;7.674;2023-02-28T11:01:53;5.10;80.00
11744;DHT22;5929;51.906;7.674;2023-02-28T11:04:33;5.40;78.40
11744;DHT22;5929;51.906;7.674;2023-02-28T11:07:03;5.30;79.50
11744;DHT22;5929;51.906;7.674;2023-02-28T11:09:33;5.50;79.40
11744;DHT22;5929;51.906;7.674;2023-02-28T11:12:01;5.80;77.20
11744;DHT22;5929;51.906;7.674;2023-02-28T11:14:31;6.20;76.10
11744;DHT22;5929;51.906;7.674;2023-02-28T11:17:03;6.30;74.90
11744;DHT22;5929;51.906;7.674;2023-02-28T11:19:45;6.10;74.90
11744;DHT22;5929;51.906;7.674;2023-02-28T11:22:18;6.00;74.10
11744;DHT22;5929;51.906;7.674;2023-02-28T11:24:48;5.70;75.10
11744;DHT22;5929;51.906;7.674;2023-02-28T11:30:26;5.60;75.90
11744;DHT22;5929;51.906;7.674;2023-02-28T11:32:53;6.30;73.90
11744;DHT22;5929;51.906;7.674;2023-02-28T11:35:24;7.10;74.20
11744;DHT22;5929;51.906;7.674;2023-02-28T11:37:52;7.90;71.80
11744;DHT22;5929;51.906;7.674;2023-02-28T11:40:23;8.50;70.20
11744;DHT22;5929;51.906;7.674;2023-02-28T11:42:59;8.60;69.50
11744;DHT22;5929;51.906;7.674;2023-02-28T11:45:40;9.40;69.00
11744;DHT22;5929;51.906;7.674;2023-02-28T11:48:17;10.00;65.70
11744;DHT22;5929;51.906;7.674;2023-02-28T11:51:01;10.10;64.30
11744;DHT22;5929;51.906;7.674;2023-02-28T11:53:45;10.20;65.10
11744;DHT22;5929;51.906;7.674;2023-02-28T11:56:19;10.50;62.50
11744;DHT22;5929;51.906;7.674;2023-02-28T11:58:55;10.20;62.20
11744;DHT22;5929;51.906;7.674;2023-02-28T12:01:36;9.80;65.50
11744;DHT22;5929;51.906;7.674;2023-02-28T12:04:15;10.00;63.10
11744;DHT22;5929;51.906;7.674;2023-02-28T12:06:47;9.60;66.10
11744;DHT22;5929;51.906;7.674;2023-02-28T12:09:31;9.50;66.00
11744;DHT22;5929;51.906;7.674;2023-02-28T12:12:07;9.90;65.50
11744;DHT22;5929;51.906;7.674;2023-02-28T12:14:53;10.00;64.00
11744;DHT22;5929;51.906;7.674;2023-02-28T12:17:32;9.90;65.00
11744;DHT22;5929;51.906;7.674;2023-02-28T12:20:13;9.80;66.50
11744;DHT22;5929;51.906;7.674;2023-02-28T12:22:49;9.90;65.50
11744;DHT22;5929;51.906;7.674;2023-02-28T12:25:39;10.50;63.20
11744;DHT22;5929;51.906;7.674;2023-02-28T12:28:12;10.40;62.00
11744;DHT22;5929;51.906;7.674;2023-02-28T12:30:49;10.20;63.90
11744;DHT22;5929;51.906;7.674;2023-02-28T12:33:19;10.30;64.00
11744;DHT22;5929;51.906;7.674;2023-02-28T12:35:49;10.80;62.70
11744;DHT22;5929;51.906;7.674;2023-02-28T12:38:21;10.60;63.00
11744;DHT22;5929;51.906;7.674;2023-02-28T12:40:54;11.20;63.30
11744;DHT22;5929;51.906;7.674;2023-02-28T12:43:27;11.20;61.50
11744;DHT22;5929;51.906;7.674;2023-02-28T12:45:58;10.60;62.70
11744;DHT22;5929;51.906;7.674;2023-02-28T12:48:31;9.80;64.80
11744;DHT22;5929;51.906;7.674;2023-02-28T12:51:03;9.80;63.70
11744;DHT22;5929;51.906;7.674;2023-02-28T12:53:39;9.00;66.00
11744;DHT22;5929;51.906;7.674;2023-02-28T12:56:16;8.40;67.40
11744;DHT22;5929;51.906;7.674;2023-02-28T12:58:48;7.80;67.90
11744;DHT22;5929;51.906;7.674;2023-02-28T13:01:55;7.40;70.70
11744;DHT22;5929;51.906;7.674;2023-02-28T13:04:36;7.20;70.70
11744;DHT22;5929;51.906;7.674;2023-02-28T13:07:13;7.10;70.90
11744;DHT22;5929;51.906;7.674;2023-02-28T13:09:55;7.10;70.80
11744;DHT22;5929;51.906;7.674;2023-02-28T13:12:23;7.00;73.10
11744;DHT22;5929;51.906;7.674;2023-02-28T13:15:07;7.40;72.60
11744;DHT22;5929;51.906;7.674;2023-02-28T13:17:39;7.90;70.60
11744;DHT22;5929;51.906;7.674;2023-02-28T13:20:15;8.20;69.70
11744;DHT22;5929;51.906;7.674;2023-02-28T13:22:44;8.70;68.80
11744;DHT22;5929;51.906;7.674;2023-02-28T13:37:49;9.20;67.80
11744;DHT22;5929;51.906;7.674;2023-02-28T13:40:30;9.20;67.40
11744;DHT22;5929;51.906;7.674;2023-02-28T13:43:02;9.40;67.20
11744;DHT22;5929;51.906;7.674;2023-02-28T13:45:30;9.20;67.00
11744;DHT22;5929;51.906;7.674;2023-02-28T13:48:04;9.30;65.80
11744;DHT22;5929;51.906;7.674;2023-02-28T13:50:34;9.30;66.10
11744;DHT22;5929;51.906;7.674;2023-02-28T13:53:30;9.20;66.10
11744;DHT22;5929;51.906;7.674;2023-02-28T13:56:03;9.30;66.10
11744;DHT22;5929;51.906;7.674;2023-02-28T13:58:42;9.40;66.40
11744;DHT22;5929;51.906;7.674;2023-02-28T14:01:25;8.70;67.10
11744;DHT22;5929;51.906;7.674;2023-02-28T14:04:06;8.50;66.60
11744;DHT22;5929;51.906;7.674;2023-02-28T14:06:38;8.20;67.90
11744;DHT22;5929;51.906;7.674;2023-02-28T14:09:21;8.20;70.20
11744;DHT22;5929;51.906;7.674;2023-02-28T14:11:50;8.20;68.30
11744;DHT22;5929;51.906;7.674;2023-02-28T14:14:55;8.00;71.60
11744;DHT22;5929;51.906;7.674;2023-02-28T14:17:24;8.00;70.20
11744;DHT22;5929;51.906;7.674;2023-02-28T14:19:51;7.70;69.10
11744;DHT22;5929;51.906;7.674;2023-02-28T14:22:43;7.20;71.60
11744;DHT22;5929;51.906;7.674;2023-02-28T14:25:22;7.20;71.60
11744;DHT22;5929;51.906;7.674;2023-02-28T14:28:02;7.10;71.20
11744;DHT22;5929;51.906;7.674;2023-02-28T14:30:56;6.90;71.30
11744;DHT22;5929;51.906;7.674;2023-02-28T14:33:31;6.80;72.90
11744;DHT22;5929;51.906;7.674;2023-02-28T14:36:07;6.80;72.80
11744;DHT22;5929;51.906;7.674;2023-02-28T14:38:43;6.90;73.30
11744;DHT22;5929;51.906;7.674;2023-02-28T14:41:22;7.00;73.00
11744;DHT22;5929;51.906;7.674;2023-02-28T14:43:52;7.00;73.00
11744;DHT22;5929;51.906;7.674;2023-02-28T14:46:20;7.10;72.90
11744;DHT22;5929;51.906;7.674;2023-02-28T14:48:48;7.00;73.50
11744;DHT22;5929;51.906;7.674;2023-02-28T14:51:19;7.00;73.90
11744;DHT22;5929;51.906;7.674;2023-02-28T14:53:50;7.10;73.20
11744;DHT22;5929;51.906;7.674;2023-02-28T14:56:24;7.30;72.60
11744;DHT22;5929;51.906;7.674;2023-02-28T14:58:54;7.20;73.20
11744;DHT22;5929;51.906;7.674;2023-02-28T15:01:23;7.20;72.60
11744;DHT22;5929;51.906;7.674;2023-02-28T15:03:58;7.30;72.30
11744;DHT22;5929;51.906;7.674;2023-02-28T15:06:26;7.40;71.80
11744;DHT22;5929;51.906;7.674;2023-02-28T15:09:17;7.50;72.40
11744;DHT22;5929;51.906;7.674;2023-02-28T15:11:48;7.40;72.80
11744;DHT22;5929;51.906;7.674;2023-02-28T15:14:19;7.50;72.50
11744;DHT22;5929;51.906;7.674;2023-02-28T15:16:50;7.50;72.40
11744;DHT22;5929;51.906;7.674;2023-02-28T15:19:22;7.80;73.60
11744;DHT22;5929;51.906;7.674;2023-02-28T15:21:52;8.20;72.80
11744;DHT22;5929;51.906;7.674;2023-02-28T15:24:25;8.20;72.60
11744;DHT22;5929;51.906;7.674;2023-02-28T15:26:59;8.40;71.00
11744;DHT22;5929;51.906;7.674;2023-02-28T15:29:31;8.70;71.30
11744;DHT22;5929;51.906;7.674;2023-02-28T15:32:02;8.70;70.60
11744;DHT22;5929;51.906;7.674;2023-02-28T15:34:35;8.60;71.30
11744;DHT22;5929;51.906;7.674;2023-02-28T15:37:07;8.20;69.50
11744;DHT22;5929;51.906;7.674;2023-02-28T15:39:52;7.90;70.70
11744;DHT22;5929;51.906;7.674;2023-02-28T15:42:21;7.80;72.20
11744;DHT22;5929;51.906;7.674;2023-02-28T15:44:48;7.60;72.60
11744;DHT22;5929;51.906;7.674;2023-02-28T15:47:18;7.30;73.30
11744;DHT22;5929;51.906;7.674;2023-02-28T15:49:48;7.00;73.60
11744;DHT22;5929;51.906;7.674;2023-02-28T15:52:20;6.80;73.90
11744;DHT22;5929;51.906;7.674;2023-02-28T15:54:48;6.50;74.30
11744;DHT22;5929;51.906;7.674;2023-02-28T15:57:18;6.30;75.20
11744;DHT22;5929;51.906;7.674;2023-02-28T15:59:50;6.10;73.90
11744;DHT22;5929;51.906;7.674;2023-02-28T16:02:20;6.00;74.90
11744;DHT22;5929;51.906;7.674;2023-02-28T16:04:58;5.90;76.10
11744;DHT22;5929;51.906;7.674;2023-02-28T16:07:26;5.80;77.10
11744;DHT22;5929;51.906;7.674;2023-02-28T16:09:53;5.70;77.50
11744;DHT22;5929;51.906;7.674;2023-02-28T16:12:21;5.60;76.90
11744;DHT22;5929;51.906;7.674;2023-02-28T16:14:52;5.60;78.60
11744;DHT22;5929;51.906;7.674;2023-02-28T16:17:21;5.50;78.80
11744;DHT22;5929;51.906;7.674;2023-02-28T16:19:49;5.40;79.90
11744;DHT22;5929;51.906;7.674;2023-02-28T16:22:16;5.40;79.00
11744;DHT22;5929;51.906;7.674;2023-02-28T16:24:43;5.40;80.30
11744;DHT22;5929;51.906;7.674;2023-02-28T16:27:17;5.30;80.40
11744;DHT22;5929;51.906;7.674;2023-02-28T16:29:45;5.30;81.30
11744;DHT22;5929;51.906;7.674;2023-02-28T16:32:14;5.20;79.80
11744;DHT22;5929;51.906;7.674;2023-02-28T16:34:42;5.20;80.20
11744;DHT22;5929;51.906;7.674;2023-02-28T16:37:12;5.10;79.90
11744;DHT22;5929;51.906;7.674;2023-02-28T16:39:40;5.00;79.80